createdAt,value
2023-05-10T08:53:02.609Z,99371.88
2023-05-10T08:54:07.826Z,99371.36
2023-05-10T08:55:13.002Z,99368.16
2023-05-10T08:56:18.483Z,99372.09
2023-05-10T08:57:23.640Z,99376.01
2023-05-10T08:58:28.841Z,99368.16
2023-05-10T08:59:34.074Z,99363.22
2023-05-10T09:00:39.327Z,99371.99
2023-05-10T09:01:44.648Z,99374.48
2023-05-10T09:02:49.928Z,99371.47
2023-05-10T09:03:55.286Z,99379.2
2023-05-10T09:05:00.776Z,99380.02
2023-05-10T09:06:06.195Z,99380.55
2023-05-10T09:07:11.394Z,99383.94
2023-05-10T09:08:16.551Z,99377.57
2023-05-10T09:09:21.720Z,99372.81
2023-05-10T09:10:26.988Z,99376.42
2023-05-10T09:11:32.220Z,99370.36
2023-05-10T09:12:37.426Z,99373.03
2023-05-10T09:13:42.699Z,99374.38
2023-05-10T09:14:48.130Z,99370.05
2023-05-10T09:15:53.464Z,99375.48
2023-05-10T09:16:58.806Z,99375.19
2023-05-10T09:18:04.221Z,99366.34
2023-05-10T09:19:09.855Z,99375.11
2023-05-10T09:20:15.434Z,99375.64
2023-05-10T09:21:20.630Z,99369.77
2023-05-10T09:22:25.870Z,99371.52
2023-05-10T09:23:31.079Z,99367.6
2023-05-10T09:24:36.236Z,99374.19
2023-05-10T09:25:41.457Z,99368.31
2023-05-10T09:26:46.628Z,99361.54
2023-05-10T09:27:51.806Z,99373.18
2023-05-10T09:28:57.020Z,99361.54
2023-05-10T09:30:02.248Z,99369.05
2023-05-10T09:31:07.551Z,99363.7
2023-05-10T09:32:14.841Z,99370.58
2023-05-10T09:33:22.835Z,99368.65
2023-05-10T09:34:27.987Z,99367.72
2023-05-10T09:35:33.172Z,99360.2
2023-05-10T09:36:38.485Z,99362.17
2023-05-10T09:37:43.837Z,99365.04
2023-05-10T09:38:49.050Z,99357
2023-05-10T09:39:54.239Z,99364.52
2023-05-10T09:40:59.402Z,99363.59
2023-05-10T09:42:04.586Z,99362.06
2023-05-10T09:43:09.886Z,99356.89
2023-05-10T09:44:15.080Z,99359.39
2023-05-10T09:45:20.514Z,99351.05
2023-05-10T09:46:25.814Z,99364
2023-05-10T09:47:31.202Z,99361.66
2023-05-10T09:48:36.398Z,99365.27
2023-05-10T09:49:41.592Z,99364.23
2023-05-10T09:50:46.831Z,99362.81
2023-05-10T09:51:52.014Z,99365.9
2023-05-10T09:52:57.190Z,99366.3
2023-05-10T09:54:02.352Z,99358.69
2023-05-10T09:55:07.546Z,99364.15
2023-05-10T09:56:12.693Z,99357.12
2023-05-10T09:57:17.883Z,99362.22
2023-05-10T09:58:23.077Z,99360.87
2023-05-10T09:59:28.334Z,99357.86
2023-05-10T10:00:33.590Z,99359.02
2023-05-10T10:01:38.836Z,99362.11
2023-05-10T10:02:44.297Z,99353.55
2023-05-10T10:03:49.528Z,99351.39
2023-05-10T10:04:54.801Z,99355.82
2023-05-10T10:06:00.079Z,99356.75
2023-05-10T10:07:05.336Z,99351.39
2023-05-10T10:08:10.610Z,99351.91
2023-05-10T10:09:15.784Z,99349.86
2023-05-10T10:10:21.009Z,99340.91
2023-05-10T10:11:26.179Z,99343.36
2023-05-10T10:12:31.336Z,99343.06
2023-05-10T10:13:36.497Z,99336.89
2023-05-10T10:14:41.674Z,99343.47
2023-05-10T10:15:47.029Z,99339.16
2023-05-10T10:17:08.855Z,99338.74
2023-05-10T10:18:14.473Z,99343.8
2023-05-10T10:19:19.678Z,99340.38
2023-05-10T10:20:24.902Z,99335.44
2023-05-10T10:21:30.546Z,99326.8
2023-05-10T10:22:35.747Z,99335.66
2023-05-10T10:23:40.933Z,99330.94
2023-05-10T10:24:46.109Z,99332.27
2023-05-10T10:25:51.327Z,99335.77
2023-05-10T10:26:56.501Z,99333.31
2023-05-10T10:28:01.700Z,99335.06
2023-05-10T10:29:06.865Z,99341.34
2023-05-10T10:30:12.036Z,99337
2023-05-10T10:31:17.305Z,99334.24
2023-05-10T10:32:22.707Z,99330.11
2023-05-10T10:33:30.244Z,99333.53
2023-05-10T10:34:35.516Z,99329.38
2023-05-10T10:35:40.699Z,99335.7
2023-05-10T10:36:45.874Z,99333.61
2023-05-10T10:37:51.190Z,99332.2
2023-05-10T10:38:56.656Z,99323.13
2023-05-10T10:40:01.806Z,99331.56
2023-05-10T10:41:07.065Z,99328.89
2023-05-10T10:42:12.268Z,99327.14
2023-05-10T10:43:17.465Z,99318.17
2023-05-10T10:44:22.693Z,99325.8
2023-05-10T10:45:27.882Z,99320.14
2023-05-10T10:46:33.106Z,99322.82
2023-05-10T10:47:38.386Z,99319.62
2023-05-10T10:48:43.718Z,99319.33
2023-05-10T10:49:48.888Z,99313.56
2023-05-10T10:50:54.084Z,99307.58
2023-05-10T10:51:59.286Z,99310.36
2023-05-10T10:53:04.545Z,99304.38
2023-05-10T10:54:09.824Z,99311.07
2023-05-10T10:55:15.308Z,99311.81
2023-05-10T10:56:20.980Z,99303.45
2023-05-10T10:57:26.176Z,99310.88
2023-05-10T10:58:31.412Z,99305.64
2023-05-10T10:59:36.605Z,99304.59
2023-05-10T11:00:41.878Z,99302.03
2023-05-10T11:01:47.151Z,99299.34
2023-05-10T11:02:52.577Z,99304.7
2023-05-10T11:03:58.206Z,99304.52
2023-05-10T11:05:03.528Z,99300.69
2023-05-10T11:06:08.779Z,99304.11
2023-05-10T11:07:13.938Z,99303.89
2023-05-10T11:08:19.512Z,99298.23
2023-05-10T11:09:24.765Z,99298.75
2023-05-10T11:10:29.950Z,99302.06
2023-05-10T11:11:35.125Z,99293.61
2023-05-10T11:12:40.277Z,99292.05
2023-05-10T11:13:46.284Z,99291.95
2023-05-10T11:14:54.747Z,99290.01
2023-05-10T11:15:59.887Z,99289.48
2023-05-10T11:17:05.224Z,99299.27
2023-05-10T11:18:10.623Z,99291.95
2023-05-10T11:19:16.085Z,99292.16
2023-05-10T11:20:21.641Z,99293.5
2023-05-10T11:21:26.849Z,99291.75
2023-05-10T11:22:32.029Z,99294.02
2023-05-10T11:23:37.203Z,99289.67
2023-05-10T11:24:42.401Z,99291.16
2023-05-10T11:25:47.578Z,99288.26
2023-05-10T11:26:52.805Z,99291.98
2023-05-10T11:27:58.045Z,99299.08
2023-05-10T11:29:03.445Z,99292.16
2023-05-10T11:30:08.670Z,99296.19
2023-05-10T11:31:13.922Z,99296.81
2023-05-10T11:32:19.172Z,99300.83
2023-05-10T11:33:24.381Z,99287.03
2023-05-10T11:34:29.847Z,99284.34
2023-05-10T11:35:35.119Z,99286.51
2023-05-10T11:36:40.290Z,99286.62
2023-05-10T11:37:45.497Z,99277.77
2023-05-10T11:38:50.717Z,99278.77
2023-05-10T11:39:55.872Z,99282.41
2023-05-10T11:41:01.051Z,99275.5
2023-05-10T11:42:06.202Z,99271.7
2023-05-10T11:43:11.351Z,99275.72
2023-05-10T11:44:16.551Z,99273.12
2023-05-10T11:45:21.814Z,99270.44
2023-05-10T11:46:27.143Z,99275.61
2023-05-10T11:47:32.653Z,99270.77
2023-05-10T11:48:37.867Z,99271.59
2023-05-10T11:49:43.043Z,99270.44
2023-05-10T11:50:48.212Z,99273.33
2023-05-10T11:51:53.385Z,99267.23
2023-05-10T11:52:58.744Z,99275.08
2023-05-10T11:54:03.956Z,99261.87
2023-05-10T11:55:09.101Z,99263.03
2023-05-10T11:56:14.363Z,99271.06
2023-05-10T11:57:19.557Z,99258.72
2023-05-10T11:58:24.701Z,99266.56
2023-05-10T11:59:29.984Z,99268.5
2023-05-10T12:00:35.177Z,99266.12
2023-05-10T12:01:40.363Z,99264.48
2023-05-10T12:02:45.621Z,99262.95
2023-05-10T12:03:51.375Z,99263.77
2023-05-10T12:04:57.075Z,99266.45
2023-05-10T12:06:02.431Z,99266.64
2023-05-10T12:07:07.675Z,99266.86
2023-05-10T12:08:12.832Z,99271.59
2023-05-10T12:09:31.798Z,99267.78
2023-05-10T12:10:48.083Z,99263.77
2023-05-10T12:11:53.243Z,99276.56
2023-05-10T12:12:58.437Z,99269.45
2023-05-10T12:14:03.593Z,99270.8
2023-05-10T12:15:08.788Z,99275.63
2023-05-10T12:16:14.037Z,99267.78
2023-05-10T12:17:19.354Z,99258
2023-05-10T12:18:24.698Z,99259.56
2023-05-10T12:19:29.888Z,99262.02
2023-05-10T12:20:35.039Z,99263.88
2023-05-10T12:21:40.269Z,99259.64
2023-05-10T12:22:45.461Z,99266.07
2023-05-10T12:23:50.636Z,99264.1
2023-05-10T12:24:55.812Z,99269.56
2023-05-10T12:26:01.127Z,99270.98
2023-05-10T12:27:06.290Z,99267.41
2023-05-10T12:28:11.489Z,99260.19
2023-05-10T12:29:16.778Z,99254.09
2023-05-10T12:30:21.995Z,99255.55
2023-05-10T12:31:27.260Z,99257.18
2023-05-10T12:32:32.651Z,99250.41
2023-05-10T12:33:37.866Z,99251.22
2023-05-10T12:34:43.078Z,99253.38
2023-05-10T12:35:48.276Z,99244.86
2023-05-10T12:36:53.452Z,99245.67
2023-05-10T12:37:58.666Z,99246.2
2023-05-10T12:39:03.825Z,99259.51
2023-05-10T12:40:09.035Z,99249.2
2023-05-10T12:41:14.314Z,99258.06
2023-05-10T12:42:19.688Z,99250.77
2023-05-10T12:43:24.845Z,99241.91
2023-05-10T12:44:30.021Z,99247.78
2023-05-10T12:45:35.309Z,99245
2023-05-10T12:46:40.574Z,99238.9
2023-05-10T12:47:45.901Z,99240.16
2023-05-10T12:49:03.504Z,99233.27
2023-05-10T12:50:13.987Z,99235.84
2023-05-10T12:51:19.808Z,99238.52
2023-05-10T12:52:25.168Z,99242.02
2023-05-10T12:53:30.378Z,99238.81
2023-05-10T12:54:35.539Z,99238.73
2023-05-10T12:55:40.754Z,99238.73
2023-05-10T12:56:46.182Z,99236.98
2023-05-10T12:57:51.425Z,99234.8
2023-05-10T12:58:56.587Z,99235.45
2023-05-10T13:00:01.812Z,99233.19
2023-05-10T13:01:07.292Z,99222.66
2023-05-10T13:02:12.589Z,99228.64
2023-05-10T13:03:17.853Z,99229.98
2023-05-10T13:04:23.180Z,99223.48
2023-05-10T13:05:28.495Z,99226.98
2023-05-10T13:06:33.690Z,99229.05
2023-05-10T13:07:38.903Z,99225.85
2023-05-10T13:08:44.093Z,99223.8
2023-05-10T13:09:49.266Z,99232.47
2023-05-10T13:10:54.470Z,99226.3
2023-05-10T13:11:59.676Z,99219.08
2023-05-10T13:13:04.870Z,99225.36
2023-05-10T13:14:10.047Z,99224.43
2023-05-10T13:15:15.214Z,99221.13
2023-05-10T13:16:20.521Z,99224.43
2023-05-10T13:17:25.779Z,99222.9
2023-05-10T13:18:31.103Z,99219.17
2023-05-10T13:19:36.338Z,99216.5
2023-05-10T13:20:41.623Z,99218.66
2023-05-10T13:21:46.812Z,99216.61
2023-05-10T13:22:53.594Z,99212.07
2023-05-10T13:23:58.810Z,99215.48
2023-05-10T13:25:03.987Z,99214.64
2023-05-10T13:26:09.152Z,99213.3
2023-05-10T13:27:14.341Z,99220.84
2023-05-10T13:28:19.523Z,99211.88
2023-05-10T13:29:24.788Z,99217.53
2023-05-10T13:30:30.175Z,99220.13
2023-05-10T13:31:35.547Z,99207.86
2023-05-10T13:32:41.013Z,99209.2
2023-05-10T13:33:46.345Z,99207.34
2023-05-10T13:34:51.629Z,99206.41
2023-05-10T13:35:57.312Z,99207.75
2023-05-10T13:37:02.563Z,99208.48
2023-05-10T13:38:07.794Z,99205.59
2023-05-10T13:39:13.137Z,99210.75
2023-05-10T13:40:18.915Z,99212.5
2023-05-10T13:41:24.290Z,99194.56
2023-05-10T13:42:29.838Z,99203.02
2023-05-10T13:43:35.091Z,99199
2023-05-10T13:44:41.016Z,99192
2023-05-10T13:45:46.240Z,99196.84
2023-05-10T13:46:51.593Z,99197.66
2023-05-10T13:47:57.094Z,99198.09
2023-05-10T13:49:02.459Z,99194.08
2023-05-10T13:50:08.130Z,99191.48
2023-05-10T13:51:13.430Z,99197.16
2023-05-10T13:52:18.706Z,99191.8
2023-05-10T13:53:23.944Z,99184.78
2023-05-10T13:54:29.113Z,99186.23
2023-05-10T13:55:48.146Z,99194.98
2023-05-10T13:57:07.262Z,99193.14
2023-05-10T13:58:12.553Z,99187.98
2023-05-10T13:59:17.827Z,99191.89
2023-05-10T14:00:26.115Z,99183.14
2023-05-10T14:01:31.811Z,99178.27
2023-05-10T14:02:37.923Z,99193.14
2023-05-10T14:03:43.730Z,99185.59
2023-05-10T14:04:49.353Z,99175.19
2023-05-10T14:05:57.337Z,99185.19
2023-05-10T14:07:02.708Z,99182.7
2023-05-10T14:08:08.005Z,99181.28
2023-05-10T14:09:13.236Z,99180.68
2023-05-10T14:10:18.620Z,99176.74
2023-05-10T14:11:26.075Z,99179.75
2023-05-10T14:12:31.539Z,99174.99
2023-05-10T14:13:36.846Z,99179.42
2023-05-10T14:14:42.179Z,99175.31
2023-05-10T14:15:47.688Z,99169.75
2023-05-10T14:16:53.077Z,99175.52
2023-05-10T14:17:58.498Z,99171.19
2023-05-10T14:19:04.792Z,99179.23
2023-05-10T14:20:10.301Z,99174.39
2023-05-10T14:21:15.635Z,99176.66
2023-05-10T14:22:22.930Z,99167.88
2023-05-10T14:23:28.300Z,99168.7
2023-05-10T14:24:33.882Z,99174.69
2023-05-10T14:25:39.070Z,99178.7
2023-05-10T14:26:44.275Z,99174.8
2023-05-10T14:27:49.484Z,99178
2023-05-10T14:28:54.782Z,99179.11
2023-05-10T14:30:00.092Z,99173.98
2023-05-10T14:31:05.452Z,99158.91
2023-05-10T14:32:10.801Z,99172
2023-05-10T14:33:16.204Z,99163.56
2023-05-10T14:34:21.381Z,99169.33
2023-05-10T14:35:27.150Z,99167.47
2023-05-10T14:36:32.350Z,99176.77
2023-05-10T14:37:37.555Z,99165.83
2023-05-10T14:38:42.793Z,99167.47
2023-05-10T14:39:48.038Z,99172.63
2023-05-10T14:40:53.254Z,99171.92
2023-05-10T14:41:58.559Z,99166.97
2023-05-10T14:43:03.728Z,99172.63
2023-05-10T14:44:08.915Z,99165.52
2023-05-10T14:45:14.142Z,99168
2023-05-10T14:46:19.699Z,99172.44
2023-05-10T14:47:25.148Z,99167.89
2023-05-10T14:48:30.394Z,99176.86
2023-05-10T14:49:35.585Z,99167.81
2023-05-10T14:50:40.858Z,99174.1
2023-05-10T14:51:46.045Z,99169.67
2023-05-10T14:54:10.375Z,99175.22
2023-05-10T14:55:16.057Z,99173.17
2023-05-10T14:56:21.662Z,99177.48
2023-05-10T14:57:26.956Z,99183.58
2023-05-10T14:58:34.628Z,99177.41
2023-05-10T14:59:40.341Z,99179.56
2023-05-10T15:00:47.094Z,99179.56
2023-05-10T15:01:53.980Z,99180.38
2023-05-10T15:03:00.898Z,99177.63
2023-05-10T15:04:07.654Z,99174.83
2023-05-10T15:05:14.497Z,99171.52
2023-05-10T15:06:20.957Z,99173.08
2023-05-10T15:07:26.291Z,99176.98
2023-05-10T15:08:31.588Z,99174.83
2023-05-10T15:09:36.960Z,99167.2
2023-05-10T15:10:42.510Z,99172.97
2023-05-10T15:11:47.909Z,99165.77
2023-05-10T15:12:53.221Z,99167.52
2023-05-10T15:13:58.466Z,99162.05
2023-05-10T15:15:03.769Z,99163.39
2023-05-10T15:16:09.140Z,99160.3
2023-05-10T15:17:14.624Z,99157.54
2023-05-10T15:18:20.344Z,99160.41
2023-05-10T15:19:27.522Z,99155.48
2023-05-10T15:20:32.738Z,99153
2023-05-10T15:21:37.981Z,99160.73
2023-05-10T15:22:43.413Z,99155.89
2023-05-10T15:23:48.652Z,99157.53
2023-05-10T15:24:53.874Z,99152.8
2023-05-10T15:25:59.073Z,99149.68
2023-05-10T15:27:04.257Z,99153.51
2023-05-10T15:28:09.454Z,99160.53
2023-05-10T15:29:14.676Z,99150.13
2023-05-10T15:30:19.869Z,99157.45
2023-05-10T15:31:25.215Z,99160.53
2023-05-10T15:32:30.606Z,99157.33
2023-05-10T15:33:35.841Z,99152.38
2023-05-10T15:34:41.108Z,99152.17
2023-05-10T15:35:46.503Z,99159.93
2023-05-10T15:36:51.672Z,99147.34
2023-05-10T15:37:56.844Z,99160.34
2023-05-10T15:39:02.056Z,99160.02
2023-05-10T15:40:07.273Z,99154.98
2023-05-10T15:41:12.462Z,99155.99
2023-05-10T15:42:17.631Z,99158.06
2023-05-10T15:43:22.812Z,99152.52
2023-05-10T15:44:28.006Z,99162.3
2023-05-10T15:45:34.590Z,99160.23
2023-05-10T15:46:41.839Z,99162.3
2023-05-10T15:47:47.246Z,99156.94
2023-05-10T15:48:52.615Z,99163.12
2023-05-10T15:49:57.801Z,99162.8
2023-05-10T15:51:03.008Z,99165.8
2023-05-10T15:52:08.187Z,99160.44
2023-05-10T15:53:13.384Z,99162.38
2023-05-10T15:54:18.631Z,99163.94
2023-05-10T15:55:24.134Z,99165.69
2023-05-10T15:56:29.337Z,99168.81
2023-05-10T15:57:36.989Z,99161.58
2023-05-10T15:58:42.258Z,99164.27
2023-05-10T15:59:47.461Z,99165.2
2023-05-10T16:00:52.792Z,99165.08
2023-05-10T16:01:58.172Z,99158.38
2023-05-10T16:03:03.746Z,99165.49
2023-05-10T16:04:09.202Z,99164.27
2023-05-10T16:05:14.449Z,99159.51
2023-05-10T16:06:20.002Z,99152.2
2023-05-10T16:07:25.280Z,99147.03
2023-05-10T16:08:30.468Z,99162.81
2023-05-10T16:09:35.659Z,99159.42
2023-05-10T16:10:40.902Z,99161.67
2023-05-10T16:11:46.120Z,99156.95
2023-05-10T16:12:51.340Z,99153.13
2023-05-10T16:13:56.513Z,99159.12
2023-05-10T16:15:01.950Z,99163.22
2023-05-10T16:16:07.220Z,99157.66
2023-05-10T16:17:13.117Z,99155.91
2023-05-10T16:18:18.663Z,99160.67
2023-05-10T16:19:24.291Z,99155.83
2023-05-10T16:20:32.272Z,99163.16
2023-05-10T16:21:37.477Z,99160.77
2023-05-10T16:22:42.689Z,99164.5
2023-05-10T16:23:48.057Z,99162.22
2023-05-10T16:24:53.274Z,99168.73
2023-05-10T16:25:58.476Z,99164.8
2023-05-10T16:27:03.694Z,99169.44
2023-05-10T16:28:08.881Z,99168.5
2023-05-10T16:29:14.097Z,99160.69
2023-05-10T16:30:19.820Z,99168.02
2023-05-10T16:31:28.166Z,99167.27
2023-05-10T16:32:33.704Z,99171.1
2023-05-10T16:33:38.972Z,99170.28
2023-05-10T16:34:44.194Z,99165.63
2023-05-10T16:35:49.493Z,99170.06
2023-05-10T16:36:54.678Z,99175.83
2023-05-10T16:37:59.936Z,99179.55
2023-05-10T16:39:05.155Z,99175.22
2023-05-10T16:40:10.437Z,99176.16
2023-05-10T16:41:15.654Z,99184.61
2023-05-10T16:42:20.873Z,99184.08
2023-05-10T16:43:27.512Z,99179.98
2023-05-10T16:44:32.762Z,99178.72
2023-05-10T16:45:37.976Z,99175.95
2023-05-10T16:46:43.473Z,99178.64
2023-05-10T16:47:48.886Z,99179.66
2023-05-10T16:48:54.166Z,99177.08
2023-05-10T16:49:59.355Z,99182.55
2023-05-10T16:51:04.633Z,99175.84
2023-05-10T16:52:09.845Z,99174.5
2023-05-10T16:53:15.082Z,99179.66
2023-05-10T16:54:20.300Z,99181.41
2023-05-10T16:55:27.758Z,99181.62
2023-05-10T16:56:32.994Z,99173.36
2023-05-10T16:57:38.246Z,99175.14
2023-05-10T16:58:43.455Z,99187.83
2023-05-10T16:59:48.658Z,99188.76
2023-05-10T17:00:53.953Z,99186.16
2023-05-10T17:01:59.286Z,99186.68
2023-05-10T17:03:04.801Z,99182.55
2023-05-10T17:04:10.555Z,99190.8
2023-05-10T17:05:17.466Z,99184.09
2023-05-10T17:06:23.355Z,99189.05
2023-05-10T17:07:28.756Z,99189.88
2023-05-10T17:08:34.315Z,99182.27
2023-05-10T17:09:39.847Z,99177.39
2023-05-10T17:10:45.210Z,99191.65
2023-05-10T17:11:50.724Z,99189.17
2023-05-10T17:12:56.084Z,99190.31
2023-05-10T17:14:01.414Z,99195.15
2023-05-10T17:15:06.835Z,99192.87
2023-05-10T17:16:12.356Z,99192.66
2023-05-10T17:17:17.709Z,99192.87
2023-05-10T17:18:23.111Z,99191.54
2023-05-10T17:19:28.411Z,99194.41
2023-05-10T17:20:35.547Z,99194
2023-05-10T17:21:40.923Z,99195.95
2023-05-10T17:22:46.201Z,99195.75
2023-05-10T17:23:51.672Z,99196.8
2023-05-10T17:24:57.442Z,99200.19
2023-05-10T17:26:03.209Z,99199.78
2023-05-10T17:27:08.608Z,99196.16
2023-05-10T17:28:13.794Z,99204.12
2023-05-10T17:29:19.272Z,99200.19
2023-05-10T17:30:24.531Z,99205.55
2023-05-10T17:31:29.902Z,99207
2023-05-10T17:32:35.472Z,99201.84
2023-05-10T17:33:40.849Z,99199.56
2023-05-10T17:34:46.286Z,99210.5
2023-05-10T17:35:51.769Z,99205.55
2023-05-10T17:36:57.126Z,99206.89
2023-05-10T17:38:03.417Z,99209.98
2023-05-10T17:39:08.949Z,99210.5
2023-05-10T17:40:14.445Z,99208.02
2023-05-10T17:41:19.786Z,99211.76
2023-05-10T17:42:25.376Z,99212.66
2023-05-10T17:43:30.845Z,99217.53
2023-05-10T17:44:36.092Z,99216.19
2023-05-10T17:45:41.668Z,99214.85
2023-05-10T17:46:47.262Z,99220.22
2023-05-10T17:47:52.731Z,99219.28
2023-05-10T17:48:58.135Z,99214.85
2023-05-10T17:50:03.627Z,99215.86
2023-05-10T17:51:09.050Z,99220.1
2023-05-10T17:52:14.713Z,99222.98
2023-05-10T17:53:19.927Z,99224.13
2023-05-10T17:54:25.133Z,99220.92
2023-05-10T17:55:30.349Z,99225.05
2023-05-10T17:56:35.588Z,99220.92
2023-05-10T17:57:40.849Z,99230.3
2023-05-10T17:58:46.153Z,99231.16
2023-05-10T17:59:51.366Z,99229.81
2023-05-10T18:00:56.767Z,99229.81
2023-05-10T18:02:02.057Z,99223.39
2023-05-10T18:03:07.515Z,99227.33
2023-05-10T18:04:12.995Z,99228.88
2023-05-10T18:05:19.213Z,99235.99
2023-05-10T18:06:25.073Z,99227.54
2023-05-10T18:07:30.380Z,99233.09
2023-05-10T18:08:35.590Z,99228.96
2023-05-10T18:09:40.840Z,99239.2
2023-05-10T18:10:46.072Z,99236.41
2023-05-10T18:11:51.270Z,99238.67
2023-05-10T18:12:56.496Z,99239.2
2023-05-10T18:14:01.698Z,99241.77
2023-05-10T18:15:06.912Z,99236.19
2023-05-10T18:16:12.229Z,99243.92
2023-05-10T18:17:19.321Z,99245.9
2023-05-10T18:18:24.578Z,99237.94
2023-05-10T18:19:29.819Z,99244.56
2023-05-10T18:20:35.098Z,99251.97
2023-05-10T18:21:40.305Z,99255.36
2023-05-10T18:22:45.597Z,99248.36
2023-05-10T18:23:50.882Z,99251.15
2023-05-10T18:24:56.091Z,99254.23
2023-05-10T18:26:01.321Z,99241.73
2023-05-10T18:27:06.552Z,99255.5
2023-05-10T18:28:11.832Z,99251.67
2023-05-10T18:29:17.148Z,99261.27
2023-05-10T18:30:22.388Z,99262.61
2023-05-10T18:31:27.723Z,99259
2023-05-10T18:32:33.143Z,99260.34
2023-05-10T18:33:38.500Z,99261.47
2023-05-10T18:34:43.753Z,99259.08
2023-05-10T18:35:48.979Z,99261.35
2023-05-10T18:36:54.206Z,99266.11
2023-05-10T18:37:59.515Z,99265.59
2023-05-10T18:39:04.738Z,99264.88
2023-05-10T18:40:09.963Z,99264.67
2023-05-10T18:41:15.157Z,99262.8
2023-05-10T18:42:20.386Z,99264.67
2023-05-10T18:43:25.593Z,99275.5
2023-05-10T18:44:30.853Z,99269.31
2023-05-10T18:45:36.053Z,99272.41
2023-05-10T18:46:41.456Z,99269.2
2023-05-10T18:47:46.824Z,99271.88
2023-05-10T18:48:52.138Z,99270.25
2023-05-10T18:49:57.366Z,99274.27
2023-05-10T18:51:02.598Z,99273.75
2023-05-10T18:52:07.826Z,99275.17
2023-05-10T18:53:13.028Z,99276.51
2023-05-10T18:54:18.300Z,99279.41
2023-05-10T18:55:23.593Z,99278.89
2023-05-10T18:56:28.831Z,99275.28
2023-05-10T18:57:34.022Z,99279
2023-05-10T18:58:39.207Z,99287.05
2023-05-10T18:59:44.414Z,99287.67
2023-05-10T19:00:49.659Z,99287.89
2023-05-10T19:01:57.419Z,99293.25
2023-05-10T19:03:03.025Z,99297.28
2023-05-10T19:04:08.386Z,99289.42
2023-05-10T19:05:13.706Z,99295.5
2023-05-10T19:06:19.523Z,99294.16
2023-05-10T19:07:24.823Z,99299.03
2023-05-10T19:08:30.012Z,99293.45
2023-05-10T19:09:35.205Z,99295.2
2023-05-10T19:10:40.418Z,99299.95
2023-05-10T19:11:45.631Z,99295.28
2023-05-10T19:12:50.836Z,99298.62
2023-05-10T19:13:56.090Z,99299.03
2023-05-10T19:15:01.255Z,99290.77
2023-05-10T19:16:07.582Z,99293.66
2023-05-10T19:17:15.392Z,99298.7
2023-05-10T19:18:23.174Z,99290.96
2023-05-10T19:19:29.964Z,99296.62
2023-05-10T19:20:36.700Z,99295.94
2023-05-10T19:21:48.445Z,99297.28
2023-05-10T19:23:10.548Z,99304.39
2023-05-10T19:24:15.966Z,99300.78
2023-05-10T19:25:22.263Z,99304.8
2023-05-10T19:26:27.520Z,99303.24
2023-05-10T19:27:33.056Z,99300.86
2023-05-10T19:28:39.000Z,99294.88
2023-05-10T19:29:44.405Z,99304.58
2023-05-10T19:30:49.765Z,99297.77
2023-05-10T19:31:55.334Z,99300.25
2023-05-10T19:33:00.832Z,99294.67
2023-05-10T19:34:07.325Z,99299.44
2023-05-10T19:35:13.135Z,99299.03
2023-05-10T19:36:19.765Z,99300.37
2023-05-10T19:37:26.695Z,99302.53
2023-05-10T19:38:31.897Z,99301.38
2023-05-10T19:39:37.298Z,99301.91
2023-05-10T19:40:42.619Z,99306.03
2023-05-10T19:41:47.843Z,99303.98
2023-05-10T19:42:55.525Z,99298.09
2023-05-10T19:44:00.748Z,99305.62
2023-05-10T19:45:05.945Z,99304.28
2023-05-10T19:46:11.324Z,99310.45
2023-05-10T19:47:16.786Z,99306.44
2023-05-10T19:48:22.063Z,99298.17
2023-05-10T19:49:27.461Z,99302
2023-05-10T19:50:33.247Z,99306.44
2023-05-10T19:51:38.461Z,99308.52
2023-05-10T19:52:43.854Z,99300.47
2023-05-10T19:53:49.107Z,99309.64
2023-05-10T19:54:54.312Z,99305.72
2023-05-10T19:56:00.188Z,99309.74
2023-05-10T19:57:05.723Z,99311.94
2023-05-10T19:58:10.946Z,99307.5
2023-05-10T19:59:16.183Z,99301.41
2023-05-10T20:00:21.377Z,99308.32
2023-05-10T20:01:26.809Z,99313.69
2023-05-10T20:02:32.494Z,99309.04
2023-05-10T20:03:38.157Z,99312.53
2023-05-10T20:04:43.588Z,99309.86
2023-05-10T20:05:48.832Z,99310.67
2023-05-10T20:06:54.176Z,99310.27
2023-05-10T20:07:59.453Z,99303.75
2023-05-10T20:09:04.594Z,99313.06
2023-05-10T20:10:09.774Z,99309.04
2023-05-10T20:11:14.995Z,99314.89
2023-05-10T20:12:20.188Z,99309.25
2023-05-10T20:13:25.423Z,99312.42
2023-05-10T20:14:30.620Z,99318.23
2023-05-10T20:15:35.977Z,99317.78
2023-05-10T20:16:41.325Z,99319.56
2023-05-10T20:17:46.759Z,99318.64
2023-05-10T20:18:56.064Z,99322.25
2023-05-10T20:20:01.407Z,99316.03
2023-05-10T20:21:06.708Z,99324
2023-05-10T20:22:11.900Z,99318.64
2023-05-10T20:23:17.132Z,99324.08
2023-05-10T20:24:22.551Z,99318.91
2023-05-10T20:25:27.950Z,99318.64
2023-05-10T20:26:33.284Z,99325.83
2023-05-10T20:27:38.473Z,99323.16
2023-05-10T20:28:43.622Z,99323.16
2023-05-10T20:29:48.822Z,99325.34
2023-05-10T20:30:54.841Z,99322.14
2023-05-10T20:32:00.285Z,99321.32
2023-05-10T20:33:05.868Z,99329.86
2023-05-10T20:34:11.147Z,99319.55
2023-05-10T20:35:16.332Z,99320.77
2023-05-10T20:36:21.505Z,99322.12
2023-05-10T20:37:26.820Z,99319.77
2023-05-10T20:38:32.278Z,99328.52
2023-05-10T20:39:37.725Z,99319.12
2023-05-10T20:40:42.937Z,99320.58
2023-05-10T20:41:48.168Z,99324.49
2023-05-10T20:42:53.345Z,99326.35
2023-05-10T20:44:00.433Z,99323.16
2023-05-10T20:45:05.656Z,99325.02
2023-05-10T20:46:11.028Z,99324.49
2023-05-10T20:47:16.274Z,99325.95
2023-05-10T20:48:21.700Z,99323.16
2023-05-10T20:49:26.883Z,99329.45
2023-05-10T20:50:32.142Z,99330.98
2023-05-10T20:51:37.398Z,99330.37
2023-05-10T20:52:42.649Z,99333.06
2023-05-10T20:53:47.936Z,99326.55
2023-05-10T20:54:53.114Z,99335.33
2023-05-10T20:55:58.300Z,99330.79
2023-05-10T20:57:03.551Z,99329.64
2023-05-10T20:58:08.730Z,99329.45
2023-05-10T20:59:13.904Z,99330.08
2023-05-10T21:00:19.823Z,99339.24
2023-05-10T21:01:25.241Z,99332.13
2023-05-10T21:02:30.682Z,99337.6
2023-05-10T21:03:35.989Z,99333.36
2023-05-10T21:04:41.219Z,99335.45
2023-05-10T21:05:46.442Z,99337.08
2023-05-10T21:06:51.627Z,99326.14
2023-05-10T21:07:56.958Z,99333.77
2023-05-10T21:09:02.153Z,99332.23
2023-05-10T21:10:07.351Z,99338.61
2023-05-10T21:11:12.545Z,99326.33
2023-05-10T21:12:17.696Z,99330.87
2023-05-10T21:13:22.945Z,99340.48
2023-05-10T21:14:28.179Z,99336.16
2023-05-10T21:15:33.336Z,99337.28
2023-05-10T21:16:38.912Z,99341.52
2023-05-10T21:17:44.353Z,99344.2
2023-05-10T21:18:49.799Z,99337.91
2023-05-10T21:19:55.152Z,99339.85
2023-05-10T21:21:00.370Z,99336.95
2023-05-10T21:22:05.584Z,99340.38
2023-05-10T21:23:10.813Z,99338.63
2023-05-10T21:24:16.194Z,99338.3
2023-05-10T21:25:21.798Z,99338.1
2023-05-10T21:26:27.017Z,99337.06
2023-05-10T21:27:32.176Z,99339.52
2023-05-10T21:28:40.297Z,99339.97
2023-05-10T21:29:45.492Z,99341.5
2023-05-10T21:30:50.687Z,99337.88
2023-05-10T21:31:55.939Z,99336.95
2023-05-10T21:33:01.558Z,99346.55
2023-05-10T21:34:06.875Z,99346.23
2023-05-10T21:35:12.083Z,99345.21
2023-05-10T21:36:17.347Z,99337.28
2023-05-10T21:37:22.726Z,99347.38
2023-05-10T21:38:27.893Z,99344.2
2023-05-10T21:39:33.046Z,99345.1
2023-05-10T21:40:38.224Z,99346.03
2023-05-10T21:41:43.446Z,99349.56
2023-05-10T21:42:48.632Z,99347.38
2023-05-10T21:43:53.790Z,99350.47
2023-05-10T21:44:58.974Z,99351.92
2023-05-10T21:46:04.303Z,99352.93
2023-05-10T21:47:09.534Z,99351.92
2023-05-10T21:48:14.794Z,99357.69